OAL883 LGAV-LGKF
Flight info
| Callsign | OAL883 |
|---|---|
| Flight time | 0h 46m |
| Altitude | 26000 |
| Route | KOR UN604 ARA |
| Aircraft | A319/M-SDE3FGHIRWY/LB1 |
Departure
| Time | 2026-05-06 18:40 |
|---|---|
| Airport | Athens Eleftherios Venizelos International Airport (LGAV) |
Arrival
| Time | 2026-05-06 19:26 |
|---|---|
| Airport | Kefallinia Airport (LGKF) |
| Time | Latitude | Longitude | Altitude | Speed | Heading |
|---|---|---|---|---|---|
| 2026-05-06 18:20 | 37.93914 | 23.95119 | 301 ft | 0 kts | 308° |
| 2026-05-06 18:29 | 37.93907 | 23.95129 | 301 ft | 4 kts | 308° |
| 2026-05-06 18:29 | 37.93890 | 23.95156 | 301 ft | 4 kts | 313° |
| 2026-05-06 18:29 | 37.93870 | 23.95179 | 301 ft | 4 kts | 325° |
| 2026-05-06 18:30 | 37.93848 | 23.95192 | 300 ft | 4 kts | 9° |
| 2026-05-06 18:30 | 37.93837 | 23.95186 | 301 ft | 1 kts | 36° |
| 2026-05-06 18:30 | 37.93836 | 23.95185 | 301 ft | 0 kts | 36° |
| 2026-05-06 18:32 | 37.93845 | 23.95198 | 300 ft | 4 kts | 50° |
| 2026-05-06 18:33 | 37.93867 | 23.95252 | 301 ft | 9 kts | 68° |
| 2026-05-06 18:33 | 37.93894 | 23.95336 | 300 ft | 8 kts | 68° |
| 2026-05-06 18:33 | 37.93875 | 23.95388 | 300 ft | 10 kts | 139° |
| 2026-05-06 18:33 | 37.93857 | 23.95472 | 297 ft | 10 kts | 60° |
| 2026-05-06 18:34 | 37.93923 | 23.95541 | 298 ft | 15 kts | 36° |
| 2026-05-06 18:34 | 37.94017 | 23.95629 | 299 ft | 19 kts | 37° |
| 2026-05-06 18:34 | 37.94133 | 23.95740 | 301 ft | 23 kts | 37° |
| 2026-05-06 18:34 | 37.94261 | 23.95860 | 298 ft | 23 kts | 37° |
| 2026-05-06 18:35 | 37.94383 | 23.95976 | 299 ft | 20 kts | 37° |
| 2026-05-06 18:35 | 37.94493 | 23.96081 | 300 ft | 21 kts | 37° |
| 2026-05-06 18:35 | 37.94612 | 23.96194 | 300 ft | 21 kts | 37° |
| 2026-05-06 18:35 | 37.94739 | 23.96315 | 300 ft | 24 kts | 36° |
| 2026-05-06 18:36 | 37.94868 | 23.96436 | 303 ft | 22 kts | 37° |
| 2026-05-06 18:36 | 37.95002 | 23.96563 | 303 ft | 24 kts | 37° |
| 2026-05-06 18:36 | 37.95110 | 23.96667 | 303 ft | 16 kts | 37° |
| 2026-05-06 18:36 | 37.95207 | 23.96758 | 303 ft | 18 kts | 36° |
| 2026-05-06 18:37 | 37.95279 | 23.96826 | 304 ft | 0 kts | 36° |
| 2026-05-06 18:37 | 37.95280 | 23.96827 | 304 ft | 1 kts | 36° |
| 2026-05-06 18:37 | 37.95296 | 23.96851 | 303 ft | 6 kts | 60° |
| 2026-05-06 18:37 | 37.95289 | 23.96908 | 305 ft | 8 kts | 119° |
| 2026-05-06 18:38 | 37.95255 | 23.96969 | 308 ft | 8 kts | 126° |
| 2026-05-06 18:38 | 37.95218 | 23.97020 | 310 ft | 8 kts | 156° |
| 2026-05-06 18:38 | 37.95165 | 23.96997 | 309 ft | 5 kts | 215° |
| 2026-05-06 18:38 | 37.95134 | 23.96968 | 309 ft | 4 kts | 216° |
| 2026-05-06 18:39 | 37.95051 | 23.96890 | 309 ft | 42 kts | 217° |
| 2026-05-06 18:39 | 37.94609 | 23.96469 | 294 ft | 116 kts | 217° |
| 2026-05-06 18:39 | 37.93816 | 23.95715 | 538 ft | 151 kts | 217° |
| 2026-05-06 18:40 | 37.92151 | 23.94114 | 2162 ft | 150 kts | 218° |
| 2026-05-06 18:40 | 37.91224 | 23.93338 | 2720 ft | 175 kts | 208° |
| 2026-05-06 18:40 | 37.90054 | 23.92591 | 3316 ft | 196 kts | 206° |
| 2026-05-06 18:40 | 37.88760 | 23.91765 | 3911 ft | 218 kts | 208° |
| 2026-05-06 18:41 | 37.87404 | 23.90867 | 5035 ft | 221 kts | 208° |
| 2026-05-06 18:41 | 37.86026 | 23.89943 | 6139 ft | 227 kts | 209° |
| 2026-05-06 18:41 | 37.84620 | 23.88998 | 7213 ft | 231 kts | 210° |
| 2026-05-06 18:41 | 37.83184 | 23.88033 | 8299 ft | 236 kts | 209° |
| 2026-05-06 18:42 | 37.81719 | 23.87049 | 9428 ft | 240 kts | 209° |
| 2026-05-06 18:42 | 37.80231 | 23.86051 | 10491 ft | 245 kts | 209° |
| 2026-05-06 18:42 | 37.78714 | 23.85032 | 11504 ft | 249 kts | 210° |
| 2026-05-06 18:42 | 37.77167 | 23.83993 | 12532 ft | 254 kts | 210° |
| 2026-05-06 18:43 | 37.75587 | 23.82934 | 13548 ft | 260 kts | 210° |
| 2026-05-06 18:43 | 37.73969 | 23.81857 | 14499 ft | 265 kts | 210° |
| 2026-05-06 18:43 | 37.72324 | 23.80761 | 15410 ft | 270 kts | 211° |
| 2026-05-06 18:43 | 37.70649 | 23.79642 | 16323 ft | 275 kts | 211° |
| 2026-05-06 18:44 | 37.68947 | 23.78503 | 17227 ft | 280 kts | 212° |
| 2026-05-06 18:44 | 37.67214 | 23.77345 | 18131 ft | 284 kts | 212° |
| 2026-05-06 18:44 | 37.65451 | 23.76168 | 18943 ft | 289 kts | 212° |
| 2026-05-06 18:44 | 37.63659 | 23.74978 | 19742 ft | 293 kts | 212° |
| 2026-05-06 18:45 | 37.61846 | 23.73777 | 20546 ft | 296 kts | 212° |
| 2026-05-06 18:45 | 37.60011 | 23.72561 | 21357 ft | 299 kts | 212° |
| 2026-05-06 18:45 | 37.58158 | 23.71330 | 22156 ft | 303 kts | 212° |
| 2026-05-06 18:45 | 37.56454 | 23.69803 | 22907 ft | 299 kts | 232° |
| 2026-05-06 18:46 | 37.55383 | 23.67606 | 23656 ft | 294 kts | 255° |
| 2026-05-06 18:46 | 37.54924 | 23.65111 | 24320 ft | 293 kts | 263° |
| 2026-05-06 18:46 | 37.54525 | 23.62581 | 24992 ft | 295 kts | 262° |
| 2026-05-06 18:46 | 37.54115 | 23.60034 | 25655 ft | 298 kts | 262° |
| 2026-05-06 18:47 | 37.53697 | 23.57464 | 25977 ft | 300 kts | 262° |
| 2026-05-06 18:47 | 37.53270 | 23.54872 | 26062 ft | 309 kts | 261° |
| 2026-05-06 18:47 | 37.52820 | 23.52128 | 26077 ft | 332 kts | 261° |
| 2026-05-06 18:47 | 37.52337 | 23.49185 | 26077 ft | 355 kts | 261° |
| 2026-05-06 18:48 | 37.51821 | 23.46044 | 26076 ft | 377 kts | 261° |
| 2026-05-06 18:48 | 37.51274 | 23.42723 | 26071 ft | 397 kts | 261° |
| 2026-05-06 18:48 | 37.50701 | 23.39249 | 26077 ft | 414 kts | 261° |
| 2026-05-06 18:48 | 37.50100 | 23.35644 | 26078 ft | 424 kts | 260° |
| 2026-05-06 18:49 | 37.49521 | 23.31984 | 26073 ft | 426 kts | 264° |
| 2026-05-06 18:49 | 37.49467 | 23.28271 | 26076 ft | 424 kts | 278° |
| 2026-05-06 18:49 | 37.50144 | 23.24680 | 26078 ft | 422 kts | 292° |
| 2026-05-06 18:49 | 37.51514 | 23.21434 | 26078 ft | 421 kts | 305° |
| 2026-05-06 18:50 | 37.53481 | 23.18714 | 26075 ft | 422 kts | 319° |
| 2026-05-06 18:50 | 37.55926 | 23.16679 | 26078 ft | 423 kts | 332° |
| 2026-05-06 18:50 | 37.58573 | 23.15043 | 26076 ft | 424 kts | 333° |
| 2026-05-06 18:50 | 37.61222 | 23.13410 | 26076 ft | 424 kts | 332° |
| 2026-05-06 18:51 | 37.63866 | 23.11774 | 26079 ft | 424 kts | 332° |
| 2026-05-06 18:51 | 37.66514 | 23.10133 | 26073 ft | 423 kts | 332° |
| 2026-05-06 18:51 | 37.69159 | 23.08491 | 26070 ft | 423 kts | 332° |
| 2026-05-06 18:51 | 37.71801 | 23.06845 | 26075 ft | 424 kts | 332° |
| 2026-05-06 18:52 | 37.74444 | 23.05199 | 26079 ft | 424 kts | 332° |
| 2026-05-06 18:52 | 37.77089 | 23.03556 | 26079 ft | 424 kts | 332° |
| 2026-05-06 18:52 | 37.79734 | 23.01914 | 26078 ft | 423 kts | 332° |
| 2026-05-06 18:52 | 37.82380 | 23.00267 | 26077 ft | 423 kts | 332° |
| 2026-05-06 18:53 | 37.85022 | 22.98619 | 26075 ft | 423 kts | 332° |
| 2026-05-06 18:53 | 37.87625 | 22.96878 | 26068 ft | 422 kts | 326° |
| 2026-05-06 18:53 | 37.89926 | 22.94587 | 26072 ft | 421 kts | 315° |
| 2026-05-06 18:53 | 37.91821 | 22.91764 | 26072 ft | 421 kts | 304° |
| 2026-05-06 18:54 | 37.93244 | 22.88528 | 26072 ft | 421 kts | 294° |
| 2026-05-06 18:54 | 37.94137 | 22.84996 | 26073 ft | 423 kts | 283° |
| 2026-05-06 18:54 | 37.94630 | 22.81327 | 26072 ft | 423 kts | 280° |
| 2026-05-06 18:54 | 37.95100 | 22.77651 | 26068 ft | 423 kts | 280° |
| 2026-05-06 18:55 | 37.95565 | 22.73970 | 26070 ft | 423 kts | 280° |
| 2026-05-06 18:55 | 37.96031 | 22.70279 | 26075 ft | 424 kts | 280° |
| 2026-05-06 18:55 | 37.96501 | 22.66598 | 26076 ft | 424 kts | 280° |
| 2026-05-06 18:55 | 37.97017 | 22.62923 | 26076 ft | 423 kts | 282° |
| 2026-05-06 18:56 | 37.97599 | 22.59264 | 26074 ft | 423 kts | 283° |
| 2026-05-06 18:56 | 37.98216 | 22.55614 | 26079 ft | 424 kts | 283° |
| 2026-05-06 18:56 | 37.98842 | 22.51969 | 26080 ft | 424 kts | 283° |
| 2026-05-06 18:56 | 37.99463 | 22.48314 | 26081 ft | 424 kts | 283° |
| 2026-05-06 18:57 | 38.00072 | 22.44649 | 26083 ft | 424 kts | 282° |
| 2026-05-06 18:57 | 38.00664 | 22.40988 | 26086 ft | 424 kts | 282° |
| 2026-05-06 18:57 | 38.01247 | 22.37319 | 26082 ft | 425 kts | 282° |
| 2026-05-06 18:57 | 38.01825 | 22.33645 | 26085 ft | 425 kts | 282° |
| 2026-05-06 18:58 | 38.02405 | 22.29968 | 26087 ft | 426 kts | 282° |
| 2026-05-06 18:58 | 38.02988 | 22.26286 | 26087 ft | 426 kts | 282° |
| 2026-05-06 18:58 | 38.03572 | 22.22607 | 26088 ft | 426 kts | 282° |
| 2026-05-06 18:58 | 38.04159 | 22.18923 | 26091 ft | 426 kts | 282° |
| 2026-05-06 18:59 | 38.04742 | 22.15241 | 26041 ft | 427 kts | 282° |
| 2026-05-06 18:59 | 38.05324 | 22.11544 | 25792 ft | 428 kts | 282° |
| 2026-05-06 18:59 | 38.05905 | 22.07839 | 25551 ft | 429 kts | 282° |
| 2026-05-06 18:59 | 38.06483 | 22.04132 | 25101 ft | 425 kts | 282° |
| 2026-05-06 19:00 | 38.07057 | 22.00451 | 24205 ft | 425 kts | 282° |
| 2026-05-06 19:00 | 38.07630 | 21.96784 | 23249 ft | 423 kts | 282° |
| 2026-05-06 19:00 | 38.08199 | 21.93134 | 22354 ft | 418 kts | 282° |
| 2026-05-06 19:00 | 38.08569 | 21.90753 | 21792 ft | 414 kts | 282° |
| 2026-05-06 19:01 | 38.09304 | 21.85995 | 20660 ft | 407 kts | 282° |
| 2026-05-06 19:01 | 38.09847 | 21.82483 | 19815 ft | 404 kts | 282° |
| 2026-05-06 19:01 | 38.10386 | 21.79000 | 19011 ft | 400 kts | 281° |
| 2026-05-06 19:01 | 38.10922 | 21.75544 | 18191 ft | 397 kts | 281° |
| 2026-05-06 19:02 | 38.11450 | 21.72124 | 17412 ft | 393 kts | 281° |
| 2026-05-06 19:02 | 38.11965 | 21.68788 | 17187 ft | 374 kts | 281° |
| 2026-05-06 19:02 | 38.12449 | 21.65647 | 17093 ft | 352 kts | 281° |
| 2026-05-06 19:02 | 38.12761 | 21.63627 | 17047 ft | 338 kts | 281° |
| 2026-05-06 19:03 | 38.13335 | 21.59875 | 16919 ft | 317 kts | 281° |
| 2026-05-06 19:03 | 38.13613 | 21.58046 | 16820 ft | 308 kts | 281° |
| 2026-05-06 19:03 | 38.14012 | 21.55421 | 16717 ft | 297 kts | 281° |
| 2026-05-06 19:03 | 38.14398 | 21.52896 | 16588 ft | 287 kts | 281° |
| 2026-05-06 19:04 | 38.14770 | 21.50449 | 16462 ft | 277 kts | 281° |
| 2026-05-06 19:04 | 38.15128 | 21.48082 | 16340 ft | 269 kts | 281° |
| 2026-05-06 19:04 | 38.15469 | 21.45773 | 16216 ft | 262 kts | 281° |
| 2026-05-06 19:04 | 38.15800 | 21.43534 | 16092 ft | 255 kts | 281° |
| 2026-05-06 19:05 | 38.16068 | 21.41338 | 15968 ft | 248 kts | 273° |
| 2026-05-06 19:05 | 38.16008 | 21.39173 | 15844 ft | 243 kts | 265° |
| 2026-05-06 19:05 | 38.15791 | 21.37074 | 15721 ft | 237 kts | 262° |
| 2026-05-06 19:05 | 38.15540 | 21.35033 | 15599 ft | 231 kts | 262° |
| 2026-05-06 19:06 | 38.15296 | 21.33049 | 15476 ft | 225 kts | 262° |
| 2026-05-06 19:06 | 38.15067 | 21.31096 | 15354 ft | 223 kts | 263° |
| 2026-05-06 19:06 | 38.14851 | 21.29152 | 15232 ft | 222 kts | 263° |
| 2026-05-06 19:06 | 38.14642 | 21.27214 | 15110 ft | 221 kts | 263° |
| 2026-05-06 19:07 | 38.14439 | 21.25279 | 14989 ft | 221 kts | 264° |
| 2026-05-06 19:07 | 38.14240 | 21.23347 | 14868 ft | 220 kts | 264° |
| 2026-05-06 19:07 | 38.14042 | 21.21416 | 14747 ft | 220 kts | 264° |
| 2026-05-06 19:07 | 38.13844 | 21.19489 | 14628 ft | 220 kts | 264° |
| 2026-05-06 19:08 | 38.13650 | 21.17562 | 14507 ft | 220 kts | 264° |
| 2026-05-06 19:08 | 38.13462 | 21.15636 | 14388 ft | 220 kts | 264° |
| 2026-05-06 19:08 | 38.13119 | 21.13750 | 14269 ft | 221 kts | 249° |
| 2026-05-06 19:08 | 38.12479 | 21.11974 | 14076 ft | 221 kts | 245° |
| 2026-05-06 19:09 | 38.11796 | 21.10226 | 13836 ft | 220 kts | 245° |
| 2026-05-06 19:09 | 38.11110 | 21.08493 | 13572 ft | 219 kts | 245° |
| 2026-05-06 19:09 | 38.10424 | 21.06768 | 13307 ft | 218 kts | 245° |
| 2026-05-06 19:09 | 38.09741 | 21.05055 | 13046 ft | 217 kts | 245° |
| 2026-05-06 19:10 | 38.09061 | 21.03352 | 12782 ft | 216 kts | 245° |
| 2026-05-06 19:10 | 38.08388 | 21.01653 | 12525 ft | 215 kts | 245° |
| 2026-05-06 19:10 | 38.07717 | 20.99961 | 12266 ft | 214 kts | 245° |
| 2026-05-06 19:10 | 38.07072 | 20.98269 | 12015 ft | 212 kts | 251° |
| 2026-05-06 19:11 | 38.06670 | 20.96481 | 11770 ft | 210 kts | 257° |
| 2026-05-06 19:11 | 38.06313 | 20.94686 | 11522 ft | 209 kts | 257° |
| 2026-05-06 19:11 | 38.05958 | 20.92903 | 11277 ft | 208 kts | 257° |
| 2026-05-06 19:11 | 38.05603 | 20.91129 | 11039 ft | 207 kts | 257° |
| 2026-05-06 19:12 | 38.05250 | 20.89366 | 10789 ft | 205 kts | 257° |
| 2026-05-06 19:12 | 38.04897 | 20.87615 | 10548 ft | 204 kts | 257° |
| 2026-05-06 19:12 | 38.04544 | 20.85874 | 10311 ft | 203 kts | 257° |
| 2026-05-06 19:12 | 38.04193 | 20.84144 | 10071 ft | 202 kts | 257° |
| 2026-05-06 19:13 | 38.03845 | 20.82423 | 9820 ft | 201 kts | 258° |
| 2026-05-06 19:13 | 38.03500 | 20.80709 | 9551 ft | 200 kts | 257° |
| 2026-05-06 19:13 | 38.03155 | 20.79003 | 9331 ft | 199 kts | 257° |
| 2026-05-06 19:13 | 38.02814 | 20.77312 | 9142 ft | 198 kts | 257° |
| 2026-05-06 19:14 | 38.02471 | 20.75625 | 8935 ft | 197 kts | 256° |
| 2026-05-06 19:14 | 38.02129 | 20.73939 | 8732 ft | 197 kts | 256° |
| 2026-05-06 19:14 | 38.01787 | 20.72256 | 8531 ft | 197 kts | 256° |
| 2026-05-06 19:14 | 38.01445 | 20.70572 | 8330 ft | 197 kts | 256° |
| 2026-05-06 19:15 | 38.01104 | 20.68893 | 8133 ft | 197 kts | 256° |
| 2026-05-06 19:15 | 38.00763 | 20.67215 | 7983 ft | 196 kts | 256° |
| 2026-05-06 19:15 | 38.00233 | 20.65620 | 7864 ft | 197 kts | 242° |
| 2026-05-06 19:15 | 37.99453 | 20.64196 | 7745 ft | 198 kts | 231° |
| 2026-05-06 19:16 | 37.98529 | 20.62848 | 7398 ft | 214 kts | 229° |
| 2026-05-06 19:16 | 37.97443 | 20.61294 | 7057 ft | 245 kts | 229° |
| 2026-05-06 19:16 | 37.96316 | 20.59671 | 6711 ft | 246 kts | 229° |
| 2026-05-06 19:16 | 37.95190 | 20.58087 | 6359 ft | 236 kts | 224° |
| 2026-05-06 19:17 | 37.93873 | 20.56966 | 6006 ft | 224 kts | 199° |
| 2026-05-06 19:17 | 37.92368 | 20.56890 | 5653 ft | 216 kts | 165° |
| 2026-05-06 19:17 | 37.91080 | 20.57794 | 5302 ft | 210 kts | 144° |
| 2026-05-06 19:17 | 37.89944 | 20.58907 | 4961 ft | 203 kts | 142° |
| 2026-05-06 19:18 | 37.88852 | 20.60006 | 4610 ft | 197 kts | 142° |
| 2026-05-06 19:18 | 37.87792 | 20.61073 | 4253 ft | 194 kts | 142° |
| 2026-05-06 19:18 | 37.86746 | 20.62140 | 3902 ft | 193 kts | 137° |
| 2026-05-06 19:18 | 37.86109 | 20.63599 | 3559 ft | 193 kts | 100° |
| 2026-05-06 19:19 | 37.86274 | 20.65239 | 3211 ft | 191 kts | 60° |
| 2026-05-06 19:19 | 37.87219 | 20.66349 | 2860 ft | 187 kts | 20° |
| 2026-05-06 19:19 | 37.88475 | 20.66404 | 2523 ft | 181 kts | 339° |
| 2026-05-06 19:19 | 37.89590 | 20.65644 | 2331 ft | 183 kts | 326° |
| 2026-05-06 19:20 | 37.90674 | 20.64843 | 2466 ft | 180 kts | 332° |
| 2026-05-06 19:20 | 37.91824 | 20.64162 | 2794 ft | 185 kts | 336° |
| 2026-05-06 19:20 | 37.93014 | 20.63529 | 3125 ft | 187 kts | 336° |
| 2026-05-06 19:20 | 37.94210 | 20.62881 | 3447 ft | 182 kts | 335° |
| 2026-05-06 19:21 | 37.95323 | 20.62265 | 3671 ft | 171 kts | 335° |
| 2026-05-06 19:21 | 37.96399 | 20.61642 | 3866 ft | 170 kts | 333° |
| 2026-05-06 19:21 | 37.97489 | 20.61035 | 3902 ft | 172 kts | 336° |
| 2026-05-06 19:21 | 37.98600 | 20.60482 | 3671 ft | 171 kts | 336° |
| 2026-05-06 19:22 | 37.99703 | 20.59895 | 3295 ft | 172 kts | 334° |
| 2026-05-06 19:22 | 38.00794 | 20.59249 | 2858 ft | 175 kts | 335° |
| 2026-05-06 19:22 | 38.01895 | 20.58562 | 2427 ft | 177 kts | 330° |
| 2026-05-06 19:22 | 38.02944 | 20.57776 | 2097 ft | 172 kts | 328° |
| 2026-05-06 19:23 | 38.03929 | 20.56952 | 1791 ft | 168 kts | 324° |
| 2026-05-06 19:23 | 38.04858 | 20.56075 | 1452 ft | 165 kts | 322° |
| 2026-05-06 19:23 | 38.05773 | 20.55252 | 1261 ft | 154 kts | 326° |
| 2026-05-06 19:23 | 38.06632 | 20.54541 | 1203 ft | 141 kts | 326° |
| 2026-05-06 19:24 | 38.07404 | 20.53915 | 1120 ft | 126 kts | 327° |
| 2026-05-06 19:24 | 38.08134 | 20.53331 | 957 ft | 123 kts | 324° |
| 2026-05-06 19:24 | 38.08842 | 20.52742 | 645 ft | 120 kts | 326° |
| 2026-05-06 19:24 | 38.09528 | 20.52146 | 402 ft | 118 kts | 324° |
| 2026-05-06 19:25 | 38.10207 | 20.51566 | 262 ft | 117 kts | 325° |
| 2026-05-06 19:25 | 38.10883 | 20.50991 | 165 ft | 117 kts | 325° |
| 2026-05-06 19:25 | 38.11548 | 20.50432 | 65 ft | 104 kts | 326° |
| 2026-05-06 19:25 | 38.12048 | 20.50002 | 64 ft | 63 kts | 326° |
| 2026-05-06 19:26 | 38.12288 | 20.49803 | 59 ft | 29 kts | 328° |
| 2026-05-06 19:26 | 38.12478 | 20.49647 | 52 ft | 36 kts | 326° |
| 2026-05-06 19:26 | 38.12679 | 20.49477 | 48 ft | 35 kts | 327° |
| 2026-05-06 19:26 | 38.12836 | 20.49347 | 42 ft | 12 kts | 328° |
| 2026-05-06 19:27 | 38.12904 | 20.49329 | 40 ft | 11 kts | 319° |
| 2026-05-06 19:27 | 38.12880 | 20.49269 | 40 ft | 10 kts | 176° |
| 2026-05-06 19:27 | 38.12833 | 20.49338 | 42 ft | 12 kts | 126° |
| 2026-05-06 19:27 | 38.12766 | 20.49401 | 45 ft | 13 kts | 147° |
| 2026-05-06 19:28 | 38.12686 | 20.49471 | 48 ft | 15 kts | 144° |
| 2026-05-06 19:28 | 38.12591 | 20.49550 | 50 ft | 17 kts | 144° |
| 2026-05-06 19:28 | 38.12485 | 20.49641 | 55 ft | 20 kts | 147° |
| 2026-05-06 19:28 | 38.12365 | 20.49744 | 56 ft | 22 kts | 145° |
| 2026-05-06 19:29 | 38.12254 | 20.49841 | 59 ft | 18 kts | 145° |
| 2026-05-06 19:29 | 38.12139 | 20.49931 | 66 ft | 21 kts | 147° |
| 2026-05-06 19:29 | 38.12016 | 20.50036 | 61 ft | 21 kts | 147° |
| 2026-05-06 19:29 | 38.11916 | 20.50122 | 68 ft | 10 kts | 145° |
| 2026-05-06 19:30 | 38.11890 | 20.50190 | 68 ft | 11 kts | 86° |
| 2026-05-06 19:30 | 38.11897 | 20.50273 | 64 ft | 8 kts | 91° |
| 2026-05-06 19:30 | 38.11875 | 20.50323 | 63 ft | 6 kts | 117° |
| 2026-05-06 19:30 | 38.11891 | 20.50375 | 66 ft | 7 kts | 56° |
| 2026-05-06 19:31 | 38.11906 | 20.50402 | 68 ft | 1 kts | 56° |
| 2026-05-06 19:31 | 38.11907 | 20.50405 | 68 ft | 0 kts | 56° |